sensor_id;sensor_type;location;lat;lon;timestamp;P1;P2;P0
71794;PMS7003;59641;45.188;5.712;2023-03-19T00:02:11;16.25;15.50;12.50
71794;PMS7003;59641;45.188;5.712;2023-03-19T00:04:36;14.75;14.75;10.75
71794;PMS7003;59641;45.188;5.712;2023-03-19T00:07:02;18.25;17.50;12.25
71794;PMS7003;59641;45.188;5.712;2023-03-19T00:09:27;16.50;15.50;12.00
71794;PMS7003;59641;45.188;5.712;2023-03-19T00:11:53;16.00;16.00;11.50
71794;PMS7003;59641;45.188;5.712;2023-03-19T00:14:18;16.25;15.00;11.50
71794;PMS7003;59641;45.188;5.712;2023-03-19T00:16:43;16.50;15.00;9.75
71794;PMS7003;59641;45.188;5.712;2023-03-19T00:19:09;13.50;13.50;11.25
71794;PMS7003;59641;45.188;5.712;2023-03-19T00:21:34;14.00;14.00;10.00
71794;PMS7003;59641;45.188;5.712;2023-03-19T00:24:00;14.25;13.50;10.25
71794;PMS7003;59641;45.188;5.712;2023-03-19T00:26:27;13.50;12.50;11.00
71794;PMS7003;59641;45.188;5.712;2023-03-19T00:28:53;14.00;14.00;12.25
71794;PMS7003;59641;45.188;5.712;2023-03-19T00:31:20;14.25;10.75;10.00
71794;PMS7003;59641;45.188;5.712;2023-03-19T00:33:46;12.25;11.75;9.25
71794;PMS7003;59641;45.188;5.712;2023-03-19T00:36:11;14.50;14.00;10.25
71794;PMS7003;59641;45.188;5.712;2023-03-19T00:38:37;11.50;11.50;9.50
71794;PMS7003;59641;45.188;5.712;2023-03-19T00:41:03;11.50;11.50;9.50
71794;PMS7003;59641;45.188;5.712;2023-03-19T00:43:30;9.25;8.00;6.00
71794;PMS7003;59641;45.188;5.712;2023-03-19T00:45:56;12.00;12.00;10.00
71794;PMS7003;59641;45.188;5.712;2023-03-19T00:48:22;11.25;11.25;9.00
71794;PMS7003;59641;45.188;5.712;2023-03-19T00:50:48;13.50;12.75;10.00
71794;PMS7003;59641;45.188;5.712;2023-03-19T00:53:14;10.50;10.50;9.00
71794;PMS7003;59641;45.188;5.712;2023-03-19T00:55:39;11.75;11.75;9.00
71794;PMS7003;59641;45.188;5.712;2023-03-19T00:58:05;10.75;10.50;8.00
71794;PMS7003;59641;45.188;5.712;2023-03-19T01:00:31;13.50;12.75;10.25
71794;PMS7003;59641;45.188;5.712;2023-03-19T01:02:57;13.50;12.75;10.50
71794;PMS7003;59641;45.188;5.712;2023-03-19T01:05:22;13.50;13.50;10.25
71794;PMS7003;59641;45.188;5.712;2023-03-19T01:07:48;12.25;12.25;10.00
71794;PMS7003;59641;45.188;5.712;2023-03-19T01:10:16;12.25;11.00;8.25
71794;PMS7003;59641;45.188;5.712;2023-03-19T01:12:46;16.50;14.50;10.00
71794;PMS7003;59641;45.188;5.712;2023-03-19T01:15:12;13.25;12.00;9.00
71794;PMS7003;59641;45.188;5.712;2023-03-19T01:17:37;11.75;11.75;10.00
71794;PMS7003;59641;45.188;5.712;2023-03-19T01:20:06;13.25;12.00;10.00
71794;PMS7003;59641;45.188;5.712;2023-03-19T01:22:37;14.25;13.00;10.00
71794;PMS7003;59641;45.188;5.712;2023-03-19T01:25:06;12.50;12.25;10.75
71794;PMS7003;59641;45.188;5.712;2023-03-19T01:27:33;13.00;13.00;9.00
71794;PMS7003;59641;45.188;5.712;2023-03-19T01:29:58;12.00;12.00;10.25
71794;PMS7003;59641;45.188;5.712;2023-03-19T01:32:24;15.50;13.25;10.75
71794;PMS7003;59641;45.188;5.712;2023-03-19T01:34:50;12.75;12.25;10.00
71794;PMS7003;59641;45.188;5.712;2023-03-19T01:37:15;12.25;12.00;9.25
71794;PMS7003;59641;45.188;5.712;2023-03-19T01:39:41;13.50;13.00;9.25
71794;PMS7003;59641;45.188;5.712;2023-03-19T01:42:06;13.00;12.25;9.25
71794;PMS7003;59641;45.188;5.712;2023-03-19T01:44:33;15.00;13.25;11.00
71794;PMS7003;59641;45.188;5.712;2023-03-19T01:47:02;13.00;13.00;10.00
71794;PMS7003;59641;45.188;5.712;2023-03-19T01:49:34;10.50;10.25;9.25
71794;PMS7003;59641;45.188;5.712;2023-03-19T01:52:01;15.00;13.75;10.50
71794;PMS7003;59641;45.188;5.712;2023-03-19T01:54:30;13.50;13.00;11.25
71794;PMS7003;59641;45.188;5.712;2023-03-19T01:56:59;9.25;9.25;8.25
71794;PMS7003;59641;45.188;5.712;2023-03-19T01:59:33;12.50;11.50;9.75
71794;PMS7003;59641;45.188;5.712;2023-03-19T02:04:33;12.75;12.75;10.50
71794;PMS7003;59641;45.188;5.712;2023-03-19T02:07:02;15.50;13.75;11.00
71794;PMS7003;59641;45.188;5.712;2023-03-19T02:09:28;15.50;14.25;10.25
71794;PMS7003;59641;45.188;5.712;2023-03-19T02:11:55;14.00;11.00;8.50
71794;PMS7003;59641;45.188;5.712;2023-03-19T02:14:21;11.00;9.75;8.00
71794;PMS7003;59641;45.188;5.712;2023-03-19T02:16:47;13.00;13.00;11.00
71794;PMS7003;59641;45.188;5.712;2023-03-19T02:19:15;14.50;14.50;11.75
71794;PMS7003;59641;45.188;5.712;2023-03-19T02:21:43;11.00;11.00;9.50
71794;PMS7003;59641;45.188;5.712;2023-03-19T02:24:13;12.25;11.50;8.50
71794;PMS7003;59641;45.188;5.712;2023-03-19T02:26:43;13.25;11.75;10.00
71794;PMS7003;59641;45.188;5.712;2023-03-19T02:29:11;13.75;12.25;9.75
71794;PMS7003;59641;45.188;5.712;2023-03-19T02:31:37;14.50;13.25;10.25
71794;PMS7003;59641;45.188;5.712;2023-03-19T02:34:15;12.25;9.25;8.75
71794;PMS7003;59641;45.188;5.712;2023-03-19T02:36:53;13.50;12.75;11.00
71794;PMS7003;59641;45.188;5.712;2023-03-19T02:41:55;14.25;14.00;9.75
71794;PMS7003;59641;45.188;5.712;2023-03-19T02:44:23;14.00;12.75;10.00
71794;PMS7003;59641;45.188;5.712;2023-03-19T02:46:48;15.00;13.25;9.75
71794;PMS7003;59641;45.188;5.712;2023-03-19T02:49:14;15.50;13.75;10.00
71794;PMS7003;59641;45.188;5.712;2023-03-19T02:51:40;12.25;12.25;10.25
71794;PMS7003;59641;45.188;5.712;2023-03-19T02:54:06;13.00;12.00;9.75
71794;PMS7003;59641;45.188;5.712;2023-03-19T02:56:31;15.00;14.00;10.25
71794;PMS7003;59641;45.188;5.712;2023-03-19T02:58:57;14.50;14.50;11.00
71794;PMS7003;59641;45.188;5.712;2023-03-19T03:01:22;13.00;11.00;8.25
71794;PMS7003;59641;45.188;5.712;2023-03-19T03:03:48;10.25;10.25;8.25
71794;PMS7003;59641;45.188;5.712;2023-03-19T03:06:14;13.00;13.00;9.00
71794;PMS7003;59641;45.188;5.712;2023-03-19T03:08:40;12.50;11.50;8.00
71794;PMS7003;59641;45.188;5.712;2023-03-19T03:11:05;11.75;10.00;8.50
71794;PMS7003;59641;45.188;5.712;2023-03-19T03:13:31;13.00;12.75;9.00
71794;PMS7003;59641;45.188;5.712;2023-03-19T03:15:57;12.50;12.00;10.00
71794;PMS7003;59641;45.188;5.712;2023-03-19T03:18:23;13.25;11.75;9.00
71794;PMS7003;59641;45.188;5.712;2023-03-19T03:20:48;10.25;10.25;9.50
71794;PMS7003;59641;45.188;5.712;2023-03-19T03:23:14;12.25;11.25;10.00
71794;PMS7003;59641;45.188;5.712;2023-03-19T03:25:39;11.50;11.00;9.00
71794;PMS7003;59641;45.188;5.712;2023-03-19T03:28:05;11.25;11.00;7.25
71794;PMS7003;59641;45.188;5.712;2023-03-19T03:30:30;10.50;10.50;9.00
71794;PMS7003;59641;45.188;5.712;2023-03-19T03:32:56;13.75;12.75;9.50
71794;PMS7003;59641;45.188;5.712;2023-03-19T03:35:22;9.50;9.50;8.00
71794;PMS7003;59641;45.188;5.712;2023-03-19T03:37:48;10.25;10.25;7.75
71794;PMS7003;59641;45.188;5.712;2023-03-19T03:40:14;12.75;12.50;8.75
71794;PMS7003;59641;45.188;5.712;2023-03-19T03:42:40;14.75;13.25;9.00
71794;PMS7003;59641;45.188;5.712;2023-03-19T03:45:05;10.25;10.25;8.25
71794;PMS7003;59641;45.188;5.712;2023-03-19T03:47:32;10.50;10.25;8.25
71794;PMS7003;59641;45.188;5.712;2023-03-19T03:49:57;10.00;10.00;8.00
71794;PMS7003;59641;45.188;5.712;2023-03-19T03:52:22;11.50;10.00;8.25
71794;PMS7003;59641;45.188;5.712;2023-03-19T03:54:48;9.75;9.75;8.75
71794;PMS7003;59641;45.188;5.712;2023-03-19T03:57:13;12.50;11.00;8.75
71794;PMS7003;59641;45.188;5.712;2023-03-19T03:59:39;10.00;9.25;8.00
71794;PMS7003;59641;45.188;5.712;2023-03-19T04:02:05;11.50;11.50;7.75
71794;PMS7003;59641;45.188;5.712;2023-03-19T04:04:30;12.25;11.25;8.75
71794;PMS7003;59641;45.188;5.712;2023-03-19T04:06:56;9.00;8.25;7.25
71794;PMS7003;59641;45.188;5.712;2023-03-19T04:09:21;13.25;11.00;8.75
71794;PMS7003;59641;45.188;5.712;2023-03-19T04:11:47;11.75;11.00;9.00
71794;PMS7003;59641;45.188;5.712;2023-03-19T04:14:13;10.00;10.00;8.00
71794;PMS7003;59641;45.188;5.712;2023-03-19T04:16:38;8.50;8.50;8.00
71794;PMS7003;59641;45.188;5.712;2023-03-19T04:19:03;10.00;10.00;8.25
71794;PMS7003;59641;45.188;5.712;2023-03-19T04:21:31;8.50;8.50;7.00
71794;PMS7003;59641;45.188;5.712;2023-03-19T04:23:57;10.50;9.50;7.75
71794;PMS7003;59641;45.188;5.712;2023-03-19T04:26:23;8.00;8.00;7.00
71794;PMS7003;59641;45.188;5.712;2023-03-19T04:28:48;10.50;10.50;7.75
71794;PMS7003;59641;45.188;5.712;2023-03-19T04:31:13;8.00;8.00;7.25
71794;PMS7003;59641;45.188;5.712;2023-03-19T04:33:39;9.50;8.25;7.75
71794;PMS7003;59641;45.188;5.712;2023-03-19T04:36:05;11.50;10.75;8.00
71794;PMS7003;59641;45.188;5.712;2023-03-19T04:38:31;8.50;8.00;6.75
71794;PMS7003;59641;45.188;5.712;2023-03-19T04:40:56;8.50;8.50;6.75
71794;PMS7003;59641;45.188;5.712;2023-03-19T04:43:22;7.00;6.00;5.75
71794;PMS7003;59641;45.188;5.712;2023-03-19T04:45:48;8.75;8.75;7.25
71794;PMS7003;59641;45.188;5.712;2023-03-19T04:48:14;10.25;9.00;7.00
71794;PMS7003;59641;45.188;5.712;2023-03-19T04:50:40;9.25;9.00;7.50
71794;PMS7003;59641;45.188;5.712;2023-03-19T04:53:06;10.25;8.50;7.00
71794;PMS7003;59641;45.188;5.712;2023-03-19T04:55:32;10.75;10.75;8.00
71794;PMS7003;59641;45.188;5.712;2023-03-19T04:57:58;9.50;7.75;6.00
71794;PMS7003;59641;45.188;5.712;2023-03-19T05:00:23;9.25;7.75;6.50
71794;PMS7003;59641;45.188;5.712;2023-03-19T05:02:49;9.00;8.25;7.00
71794;PMS7003;59641;45.188;5.712;2023-03-19T05:05:14;8.50;7.50;6.00
71794;PMS7003;59641;45.188;5.712;2023-03-19T05:07:40;7.00;7.00;7.00
71794;PMS7003;59641;45.188;5.712;2023-03-19T05:10:06;9.00;7.00;6.00
71794;PMS7003;59641;45.188;5.712;2023-03-19T05:12:33;10.50;9.25;7.00
71794;PMS7003;59641;45.188;5.712;2023-03-19T05:14:59;8.75;8.00;7.00
71794;PMS7003;59641;45.188;5.712;2023-03-19T05:17:26;8.75;8.75;6.75
71794;PMS7003;59641;45.188;5.712;2023-03-19T05:19:51;6.75;6.50;5.50
71794;PMS7003;59641;45.188;5.712;2023-03-19T05:22:17;9.00;8.25;6.25
71794;PMS7003;59641;45.188;5.712;2023-03-19T05:24:43;8.00;8.00;6.50
71794;PMS7003;59641;45.188;5.712;2023-03-19T05:27:09;10.50;8.25;7.00
71794;PMS7003;59641;45.188;5.712;2023-03-19T05:29:36;9.75;9.00;6.75
71794;PMS7003;59641;45.188;5.712;2023-03-19T05:32:01;10.25;10.00;8.00
71794;PMS7003;59641;45.188;5.712;2023-03-19T05:34:27;9.75;9.25;7.00
71794;PMS7003;59641;45.188;5.712;2023-03-19T05:36:53;7.25;6.50;6.25
71794;PMS7003;59641;45.188;5.712;2023-03-19T05:39:21;10.25;10.00;7.00
71794;PMS7003;59641;45.188;5.712;2023-03-19T05:41:47;9.25;9.25;7.00
71794;PMS7003;59641;45.188;5.712;2023-03-19T05:44:12;12.50;11.50;7.50
71794;PMS7003;59641;45.188;5.712;2023-03-19T05:46:37;7.75;7.75;7.50
71794;PMS7003;59641;45.188;5.712;2023-03-19T05:49:03;10.25;9.25;7.00
71794;PMS7003;59641;45.188;5.712;2023-03-19T05:51:29;11.25;9.25;7.75
71794;PMS7003;59641;45.188;5.712;2023-03-19T05:53:54;7.75;7.75;6.25
71794;PMS7003;59641;45.188;5.712;2023-03-19T05:56:20;8.25;7.50;6.25
71794;PMS7003;59641;45.188;5.712;2023-03-19T05:58:45;7.25;6.00;5.00
71794;PMS7003;59641;45.188;5.712;2023-03-19T06:01:11;8.00;7.00;5.75
71794;PMS7003;59641;45.188;5.712;2023-03-19T06:03:36;6.25;6.25;4.50
71794;PMS7003;59641;45.188;5.712;2023-03-19T06:06:01;8.00;8.00;6.75
71794;PMS7003;59641;45.188;5.712;2023-03-19T06:08:27;7.50;7.50;5.00
71794;PMS7003;59641;45.188;5.712;2023-03-19T06:10:52;5.75;5.75;5.50
71794;PMS7003;59641;45.188;5.712;2023-03-19T06:13:18;8.00;8.00;7.50
71794;PMS7003;59641;45.188;5.712;2023-03-19T06:15:43;8.75;8.00;6.00
71794;PMS7003;59641;45.188;5.712;2023-03-19T06:18:09;6.75;6.75;5.75
71794;PMS7003;59641;45.188;5.712;2023-03-19T06:20:34;7.50;7.50;6.25
71794;PMS7003;59641;45.188;5.712;2023-03-19T06:22:59;6.75;6.75;4.75
71794;PMS7003;59641;45.188;5.712;2023-03-19T06:25:25;8.00;8.00;6.50
71794;PMS7003;59641;45.188;5.712;2023-03-19T06:27:51;10.50;7.75;6.75
71794;PMS7003;59641;45.188;5.712;2023-03-19T06:30:16;8.25;7.25;6.50
71794;PMS7003;59641;45.188;5.712;2023-03-19T06:32:42;8.00;8.00;6.75
71794;PMS7003;59641;45.188;5.712;2023-03-19T06:35:07;8.25;7.00;6.25
71794;PMS7003;59641;45.188;5.712;2023-03-19T06:37:33;9.50;7.50;6.50
71794;PMS7003;59641;45.188;5.712;2023-03-19T06:39:58;6.00;6.00;5.25
71794;PMS7003;59641;45.188;5.712;2023-03-19T06:42:24;6.75;6.75;6.00
71794;PMS7003;59641;45.188;5.712;2023-03-19T06:44:49;8.75;8.75;7.75
71794;PMS7003;59641;45.188;5.712;2023-03-19T06:47:14;9.00;7.75;5.75
71794;PMS7003;59641;45.188;5.712;2023-03-19T06:49:40;8.00;8.00;6.75
71794;PMS7003;59641;45.188;5.712;2023-03-19T06:52:06;6.25;5.75;5.25
71794;PMS7003;59641;45.188;5.712;2023-03-19T06:54:31;7.00;7.00;6.00
71794;PMS7003;59641;45.188;5.712;2023-03-19T06:56:57;8.25;7.50;6.25
71794;PMS7003;59641;45.188;5.712;2023-03-19T06:59:23;8.00;8.00;5.75
71794;PMS7003;59641;45.188;5.712;2023-03-19T07:01:49;5.75;5.75;5.75
71794;PMS7003;59641;45.188;5.712;2023-03-19T07:04:14;6.75;6.75;5.75
71794;PMS7003;59641;45.188;5.712;2023-03-19T07:06:40;6.75;6.50;5.75
71794;PMS7003;59641;45.188;5.712;2023-03-19T07:09:05;8.50;7.75;7.00
71794;PMS7003;59641;45.188;5.712;2023-03-19T07:11:31;7.75;7.00;5.75
71794;PMS7003;59641;45.188;5.712;2023-03-19T07:13:57;7.50;7.00;6.00
71794;PMS7003;59641;45.188;5.712;2023-03-19T07:16:22;8.00;7.75;6.50
71794;PMS7003;59641;45.188;5.712;2023-03-19T07:18:48;11.00;9.00;6.00
71794;PMS7003;59641;45.188;5.712;2023-03-19T07:21:13;9.50;8.75;7.50
71794;PMS7003;59641;45.188;5.712;2023-03-19T07:23:38;5.50;5.50;5.00
71794;PMS7003;59641;45.188;5.712;2023-03-19T07:26:05;6.75;6.75;6.50
71794;PMS7003;59641;45.188;5.712;2023-03-19T07:28:30;9.50;8.25;6.75
71794;PMS7003;59641;45.188;5.712;2023-03-19T07:30:56;8.75;7.50;6.75
71794;PMS7003;59641;45.188;5.712;2023-03-19T07:33:21;10.25;8.75;7.75
71794;PMS7003;59641;45.188;5.712;2023-03-19T07:35:47;9.00;8.25;7.25
71794;PMS7003;59641;45.188;5.712;2023-03-19T07:38:12;10.25;9.25;6.00
71794;PMS7003;59641;45.188;5.712;2023-03-19T07:40:38;10.25;9.00;7.50
71794;PMS7003;59641;45.188;5.712;2023-03-19T07:43:04;11.50;11.50;8.75
71794;PMS7003;59641;45.188;5.712;2023-03-19T07:45:30;9.75;9.75;7.75
71794;PMS7003;59641;45.188;5.712;2023-03-19T07:47:55;13.25;13.25;10.50
71794;PMS7003;59641;45.188;5.712;2023-03-19T07:50:21;8.00;8.00;7.00
71794;PMS7003;59641;45.188;5.712;2023-03-19T07:52:47;7.75;7.75;6.00
71794;PMS7003;59641;45.188;5.712;2023-03-19T07:55:13;9.25;8.50;7.25
71794;PMS7003;59641;45.188;5.712;2023-03-19T07:57:39;10.50;9.50;7.50
71794;PMS7003;59641;45.188;5.712;2023-03-19T08:00:05;9.75;7.75;6.75
71794;PMS7003;59641;45.188;5.712;2023-03-19T08:02:32;7.50;7.50;7.00
71794;PMS7003;59641;45.188;5.712;2023-03-19T08:04:57;10.00;10.00;8.25
71794;PMS7003;59641;45.188;5.712;2023-03-19T08:07:26;10.25;9.50;7.00
71794;PMS7003;59641;45.188;5.712;2023-03-19T08:09:51;10.75;10.75;9.75
71794;PMS7003;59641;45.188;5.712;2023-03-19T08:12:17;12.50;12.00;9.50
71794;PMS7003;59641;45.188;5.712;2023-03-19T08:14:42;11.50;10.75;9.00
71794;PMS7003;59641;45.188;5.712;2023-03-19T08:17:08;11.50;11.50;8.75
71794;PMS7003;59641;45.188;5.712;2023-03-19T08:19:33;9.75;9.75;7.75
71794;PMS7003;59641;45.188;5.712;2023-03-19T08:21:59;10.50;10.25;8.00
71794;PMS7003;59641;45.188;5.712;2023-03-19T08:24:24;11.75;10.75;8.50
71794;PMS7003;59641;45.188;5.712;2023-03-19T08:26:50;8.25;7.75;5.50
71794;PMS7003;59641;45.188;5.712;2023-03-19T08:29:15;10.25;10.00;8.75
71794;PMS7003;59641;45.188;5.712;2023-03-19T08:31:41;12.25;11.25;8.00
71794;PMS7003;59641;45.188;5.712;2023-03-19T08:34:07;10.75;10.75;8.75
71794;PMS7003;59641;45.188;5.712;2023-03-19T08:36:34;11.25;11.25;9.50
71794;PMS7003;59641;45.188;5.712;2023-03-19T08:39:00;10.75;10.75;8.00
71794;PMS7003;59641;45.188;5.712;2023-03-19T08:41:25;12.00;11.00;8.00
71794;PMS7003;59641;45.188;5.712;2023-03-19T08:43:51;12.00;11.00;9.00
71794;PMS7003;59641;45.188;5.712;2023-03-19T08:46:16;12.75;12.25;10.50
71794;PMS7003;59641;45.188;5.712;2023-03-19T08:48:42;12.75;12.50;11.00
71794;PMS7003;59641;45.188;5.712;2023-03-19T08:51:08;11.75;11.25;8.75
71794;PMS7003;59641;45.188;5.712;2023-03-19T08:53:34;9.75;9.75;7.75
71794;PMS7003;59641;45.188;5.712;2023-03-19T08:56:01;9.50;9.50;7.25
71794;PMS7003;59641;45.188;5.712;2023-03-19T08:58:28;12.25;12.00;9.50
71794;PMS7003;59641;45.188;5.712;2023-03-19T09:01:07;14.00;14.00;9.75
71794;PMS7003;59641;45.188;5.712;2023-03-19T09:03:35;9.75;8.50;8.00
71794;PMS7003;59641;45.188;5.712;2023-03-19T09:06:01;12.25;9.75;8.75
71794;PMS7003;59641;45.188;5.712;2023-03-19T09:08:29;10.25;10.25;9.25
71794;PMS7003;59641;45.188;5.712;2023-03-19T09:10:55;9.75;9.25;7.75
71794;PMS7003;59641;45.188;5.712;2023-03-19T09:13:20;11.50;10.75;8.00
71794;PMS7003;59641;45.188;5.712;2023-03-19T09:15:46;13.25;12.00;9.25
71794;PMS7003;59641;45.188;5.712;2023-03-19T09:18:12;11.75;11.75;8.75
71794;PMS7003;59641;45.188;5.712;2023-03-19T09:20:37;11.00;10.50;9.25
71794;PMS7003;59641;45.188;5.712;2023-03-19T09:23:03;10.00;10.00;8.00
71794;PMS7003;59641;45.188;5.712;2023-03-19T09:25:28;12.75;11.25;9.00
71794;PMS7003;59641;45.188;5.712;2023-03-19T09:27:54;11.50;11.00;8.50
71794;PMS7003;59641;45.188;5.712;2023-03-19T09:30:19;9.00;9.00;7.50
71794;PMS7003;59641;45.188;5.712;2023-03-19T09:32:45;10.75;10.25;8.25
71794;PMS7003;59641;45.188;5.712;2023-03-19T09:35:11;11.50;11.00;8.75
71794;PMS7003;59641;45.188;5.712;2023-03-19T09:37:36;13.50;11.25;8.25
71794;PMS7003;59641;45.188;5.712;2023-03-19T09:40:02;10.25;10.00;8.00
71794;PMS7003;59641;45.188;5.712;2023-03-19T09:45:11;11.00;10.25;8.25
71794;PMS7003;59641;45.188;5.712;2023-03-19T09:47:40;9.25;9.25;8.50
71794;PMS7003;59641;45.188;5.712;2023-03-19T09:50:15;15.75;13.75;10.25
71794;PMS7003;59641;45.188;5.712;2023-03-19T09:52:46;13.75;12.25;9.50
71794;PMS7003;59641;45.188;5.712;2023-03-19T09:55:18;14.25;13.00;10.75
71794;PMS7003;59641;45.188;5.712;2023-03-19T09:57:48;14.50;14.50;10.00
71794;PMS7003;59641;45.188;5.712;2023-03-19T10:00:19;14.00;13.50;11.00
71794;PMS7003;59641;45.188;5.712;2023-03-19T10:02:52;15.25;14.00;11.25
71794;PMS7003;59641;45.188;5.712;2023-03-19T10:08:18;12.25;12.00;9.75
71794;PMS7003;59641;45.188;5.712;2023-03-19T10:13:47;10.00;9.75;7.75
71794;PMS7003;59641;45.188;5.712;2023-03-19T10:16:23;13.50;13.50;9.75
71794;PMS7003;59641;45.188;5.712;2023-03-19T10:18:51;12.75;12.00;8.00
71794;PMS7003;59641;45.188;5.712;2023-03-19T10:21:41;11.25;11.00;10.00
71794;PMS7003;59641;45.188;5.712;2023-03-19T10:24:39;11.25;11.25;9.00
71794;PMS7003;59641;45.188;5.712;2023-03-19T10:27:11;13.25;11.50;8.50
71794;PMS7003;59641;45.188;5.712;2023-03-19T10:29:39;12.00;11.50;9.00
71794;PMS7003;59641;45.188;5.712;2023-03-19T10:34:44;13.00;11.00;10.00
71794;PMS7003;59641;45.188;5.712;2023-03-19T10:37:21;10.75;10.75;9.25
71794;PMS7003;59641;45.188;5.712;2023-03-19T10:39:51;10.75;10.75;8.75
71794;PMS7003;59641;45.188;5.712;2023-03-19T10:47:48;13.75;13.50;10.25
71794;PMS7003;59641;45.188;5.712;2023-03-19T10:50:20;16.50;13.75;11.50
71794;PMS7003;59641;45.188;5.712;2023-03-19T10:52:51;12.00;12.00;10.00
71794;PMS7003;59641;45.188;5.712;2023-03-19T10:55:31;15.00;13.50;11.00
71794;PMS7003;59641;45.188;5.712;2023-03-19T10:58:15;11.50;11.50;9.00
71794;PMS7003;59641;45.188;5.712;2023-03-19T11:00:45;11.75;11.00;10.00
71794;PMS7003;59641;45.188;5.712;2023-03-19T11:06:02;8.00;8.00;6.00
71794;PMS7003;59641;45.188;5.712;2023-03-19T11:08:35;13.50;13.50;10.00
71794;PMS7003;59641;45.188;5.712;2023-03-19T11:11:01;9.25;9.25;7.25
71794;PMS7003;59641;45.188;5.712;2023-03-19T11:13:27;13.00;13.00;10.75
71794;PMS7003;59641;45.188;5.712;2023-03-19T11:15:54;14.00;13.25;10.00
71794;PMS7003;59641;45.188;5.712;2023-03-19T11:18:24;11.50;10.00;9.00
71794;PMS7003;59641;45.188;5.712;2023-03-19T11:21:00;15.00;13.25;10.50
71794;PMS7003;59641;45.188;5.712;2023-03-19T11:23:38;13.25;12.25;10.25
71794;PMS7003;59641;45.188;5.712;2023-03-19T11:26:06;4.50;3.00;1.75
71794;PMS7003;59641;45.188;5.712;2023-03-19T11:28:31;13.50;12.00;10.25
71794;PMS7003;59641;45.188;5.712;2023-03-19T11:36:35;13.25;10.00;8.00
71794;PMS7003;59641;45.188;5.712;2023-03-19T11:41:56;9.00;9.00;7.00
71794;PMS7003;59641;45.188;5.712;2023-03-19T11:47:09;12.25;11.75;9.50
71794;PMS7003;59641;45.188;5.712;2023-03-19T12:00:56;5.00;5.00;4.20
71794;PMS7003;59641;45.188;5.712;2023-03-19T12:06:46;6.40;6.40;4.60
71794;PMS7003;59641;45.188;5.712;2023-03-19T12:12:15;10.00;7.25;5.25
71794;PMS7003;59641;45.188;5.712;2023-03-19T12:17:40;6.50;6.00;4.50
71794;PMS7003;59641;45.188;5.712;2023-03-19T12:22:56;4.75;4.75;3.25
71794;PMS7003;59641;45.188;5.712;2023-03-19T12:28:19;5.80;4.00;3.80
71794;PMS7003;59641;45.188;5.712;2023-03-19T12:30:56;7.60;3.80;3.00
71794;PMS7003;59641;45.188;5.712;2023-03-19T12:33:40;5.75;4.75;2.75
71794;PMS7003;59641;45.188;5.712;2023-03-19T12:36:10;6.75;6.75;4.00
71794;PMS7003;59641;45.188;5.712;2023-03-19T12:38:44;9.25;7.00;6.00
71794;PMS7003;59641;45.188;5.712;2023-03-19T12:41:22;6.75;6.50;5.00
71794;PMS7003;59641;45.188;5.712;2023-03-19T12:43:58;7.00;6.50;5.00
71794;PMS7003;59641;45.188;5.712;2023-03-19T12:49:22;5.00;5.00;3.40
71794;PMS7003;59641;45.188;5.712;2023-03-19T12:52:47;6.00;4.00;3.25
71794;PMS7003;59641;45.188;5.712;2023-03-19T12:54:50;8.25;4.75;4.75
71794;PMS7003;59641;45.188;5.712;2023-03-19T12:57:29;5.00;5.00;4.00
71794;PMS7003;59641;45.188;5.712;2023-03-19T13:02:43;4.60;4.00;3.20
71794;PMS7003;59641;45.188;5.712;2023-03-19T13:05:18;6.00;6.00;4.40
71794;PMS7003;59641;45.188;5.712;2023-03-19T13:10:31;6.40;6.00;5.00
71794;PMS7003;59641;45.188;5.712;2023-03-19T13:12:56;5.75;5.00;4.50
71794;PMS7003;59641;45.188;5.712;2023-03-19T13:15:38;5.40;5.00;4.00
71794;PMS7003;59641;45.188;5.712;2023-03-19T13:23:32;8.00;8.00;5.60
71794;PMS7003;59641;45.188;5.712;2023-03-19T13:26:00;9.75;7.75;5.25
71794;PMS7003;59641;45.188;5.712;2023-03-19T13:28:31;5.25;5.25;4.00
71794;PMS7003;59641;45.188;5.712;2023-03-19T13:31:00;6.00;6.00;4.80
71794;PMS7003;59641;45.188;5.712;2023-03-19T13:33:28;6.50;6.50;6.00
71794;PMS7003;59641;45.188;5.712;2023-03-19T13:35:55;6.75;5.00;4.00
71794;PMS7003;59641;45.188;5.712;2023-03-19T13:38:25;6.75;5.75;4.75
71794;PMS7003;59641;45.188;5.712;2023-03-19T13:43:59;4.80;4.80;4.00
71794;PMS7003;59641;45.188;5.712;2023-03-19T13:46:45;4.80;4.80;4.00
71794;PMS7003;59641;45.188;5.712;2023-03-19T13:49:26;7.75;6.50;4.50
71794;PMS7003;59641;45.188;5.712;2023-03-19T13:51:54;7.40;7.40;6.20
71794;PMS7003;59641;45.188;5.712;2023-03-19T13:54:31;5.20;5.20;4.20
71794;PMS7003;59641;45.188;5.712;2023-03-19T13:57:10;6.50;6.50;5.25
71794;PMS7003;59641;45.188;5.712;2023-03-19T13:59:44;7.50;7.50;5.25
71794;PMS7003;59641;45.188;5.712;2023-03-19T14:05:02;5.75;4.75;4.00
71794;PMS7003;59641;45.188;5.712;2023-03-19T14:07:36;4.00;4.00;3.50
71794;PMS7003;59641;45.188;5.712;2023-03-19T14:10:21;3.00;3.00;2.00
71794;PMS7003;59641;45.188;5.712;2023-03-19T14:12:50;3.00;3.00;2.00
71794;PMS7003;59641;45.188;5.712;2023-03-19T14:15:24;4.00;2.60;2.60
71794;PMS7003;59641;45.188;5.712;2023-03-19T14:17:54;3.00;3.00;3.00
71794;PMS7003;59641;45.188;5.712;2023-03-19T14:20:25;3.75;1.00;1.00
71794;PMS7003;59641;45.188;5.712;2023-03-19T14:25:25;4.00;3.00;2.00
71794;PMS7003;59641;45.188;5.712;2023-03-19T14:27:58;2.00;2.00;1.50
71794;PMS7003;59641;45.188;5.712;2023-03-19T14:30:37;2.75;2.75;2.75
71794;PMS7003;59641;45.188;5.712;2023-03-19T14:33:14;2.60;2.60;2.60
71794;PMS7003;59641;45.188;5.712;2023-03-19T14:35:48;3.00;3.00;2.00
71794;PMS7003;59641;45.188;5.712;2023-03-19T14:38:20;3.00;3.00;2.00
71794;PMS7003;59641;45.188;5.712;2023-03-19T14:40:56;2.60;2.60;2.00
71794;PMS7003;59641;45.188;5.712;2023-03-19T14:52:31;4.60;4.60;3.80
71794;PMS7003;59641;45.188;5.712;2023-03-19T14:55:12;3.80;3.00;2.40
71794;PMS7003;59641;45.188;5.712;2023-03-19T14:57:39;3.00;2.00;2.00
71794;PMS7003;59641;45.188;5.712;2023-03-19T15:00:05;3.00;3.00;2.00
71794;PMS7003;59641;45.188;5.712;2023-03-19T15:02:40;3.00;3.00;2.00
71794;PMS7003;59641;45.188;5.712;2023-03-19T15:07:40;1.00;1.00;1.00
71794;PMS7003;59641;45.188;5.712;2023-03-19T15:10:28;1.00;1.00;0.00
71794;PMS7003;59641;45.188;5.712;2023-03-19T15:13:07;2.00;2.00;1.60
71794;PMS7003;59641;45.188;5.712;2023-03-19T15:18:11;2.80;2.00;2.00
71794;PMS7003;59641;45.188;5.712;2023-03-19T15:20:42;3.80;3.00;1.20
71794;PMS7003;59641;45.188;5.712;2023-03-19T15:23:11;4.00;2.00;1.00
71794;PMS7003;59641;45.188;5.712;2023-03-19T15:25:51;1.60;1.60;1.00
71794;PMS7003;59641;45.188;5.712;2023-03-19T15:28:26;1.00;1.00;1.00
71794;PMS7003;59641;45.188;5.712;2023-03-19T15:30:57;2.00;2.00;2.00
71794;PMS7003;59641;45.188;5.712;2023-03-19T15:33:34;2.25;2.25;2.00
71794;PMS7003;59641;45.188;5.712;2023-03-19T15:36:10;4.00;4.00;3.00
71794;PMS7003;59641;45.188;5.712;2023-03-19T15:38:45;1.60;1.60;1.00
71794;PMS7003;59641;45.188;5.712;2023-03-19T15:41:11;4.50;3.75;3.00
71794;PMS7003;59641;45.188;5.712;2023-03-19T15:43:38;5.00;4.25;3.00
71794;PMS7003;59641;45.188;5.712;2023-03-19T15:46:06;3.00;3.00;2.60
71794;PMS7003;59641;45.188;5.712;2023-03-19T15:49:09;5.00;5.00;3.00
71794;PMS7003;59641;45.188;5.712;2023-03-19T15:51:27;3.20;3.20;3.00